DLH462 EDDF-KMIA
Flight info
| Callsign | DLH462 |
|---|---|
| Flight time | N/A |
| Altitude | 34000 |
| Route | SOBRA2L/18 SOBRA Y180 DIK UN857 TOLVU/N0481F350 DCT RAPOR DCT GIMER DCT ESTOC UT300 ELCOB/N0474F340 UT300 SENLO UN502 JSY DCT LIZAD DCT LULOX/M082F340 DCT DINIM/M082F360 NATF MUSAK/M083F380 N278C GAYBL DCT 41N065W DCT DRYED M201 VIRST Y494 OOONN/M083F400 Y494 WHOOS/N0473F400 Y494 WEAKK Y493 BAHAA AR15 HIBAC TARPN3 |
| Aircraft | B748/H-SDE3FGHIM1M2RWXY/LB1 |
Departure
| Time | 2026-05-06 09:41 |
|---|---|
| Airport | Frankfurt Main Airport (EDDF) |
Arrival
| Time | N/A |
|---|---|
| Airport | Miami International Airport (KMIA) |
| Time | Latitude | Longitude | Altitude | Speed | Heading |
|---|---|---|---|---|---|
| 2026-05-06 09:05 | 50.04700 | 8.56159 | 359 ft | 0 kts | 339° |
| 2026-05-06 09:23 | 50.04685 | 8.56167 | 364 ft | 2 kts | 338° |
| 2026-05-06 09:23 | 50.04670 | 8.56177 | 359 ft | 2 kts | 337° |
| 2026-05-06 09:24 | 50.04655 | 8.56187 | 364 ft | 2 kts | 334° |
| 2026-05-06 09:24 | 50.04640 | 8.56199 | 365 ft | 2 kts | 329° |
| 2026-05-06 09:24 | 50.04626 | 8.56214 | 360 ft | 2 kts | 309° |
| 2026-05-06 09:24 | 50.04619 | 8.56237 | 362 ft | 2 kts | 253° |
| 2026-05-06 09:25 | 50.04621 | 8.56248 | 363 ft | 0 kts | 250° |
| 2026-05-06 09:25 | 50.04621 | 8.56247 | 363 ft | 0 kts | 250° |
| 2026-05-06 09:29 | 50.04620 | 8.56242 | 362 ft | 2 kts | 250° |
| 2026-05-06 09:29 | 50.04614 | 8.56217 | 363 ft | 4 kts | 249° |
| 2026-05-06 09:29 | 50.04603 | 8.56171 | 362 ft | 5 kts | 249° |
| 2026-05-06 09:30 | 50.04588 | 8.56110 | 364 ft | 7 kts | 249° |
| 2026-05-06 09:30 | 50.04579 | 8.56073 | 355 ft | 8 kts | 249° |
| 2026-05-06 09:30 | 50.04556 | 8.56001 | 365 ft | 7 kts | 233° |
| 2026-05-06 09:30 | 50.04520 | 8.55960 | 362 ft | 7 kts | 208° |
| 2026-05-06 09:31 | 50.04474 | 8.55933 | 362 ft | 8 kts | 199° |
| 2026-05-06 09:31 | 50.04417 | 8.55910 | 363 ft | 9 kts | 189° |
| 2026-05-06 09:31 | 50.04359 | 8.55922 | 363 ft | 9 kts | 161° |
| 2026-05-06 09:31 | 50.04300 | 8.55953 | 361 ft | 10 kts | 165° |
| 2026-05-06 09:32 | 50.04253 | 8.55939 | 363 ft | 6 kts | 211° |
| 2026-05-06 09:32 | 50.04231 | 8.55899 | 363 ft | 5 kts | 237° |
| 2026-05-06 09:32 | 50.04218 | 8.55849 | 359 ft | 6 kts | 249° |
| 2026-05-06 09:32 | 50.04202 | 8.55785 | 361 ft | 7 kts | 249° |
| 2026-05-06 09:33 | 50.04181 | 8.55700 | 363 ft | 9 kts | 250° |
| 2026-05-06 09:33 | 50.04157 | 8.55599 | 363 ft | 11 kts | 250° |
| 2026-05-06 09:33 | 50.04129 | 8.55479 | 356 ft | 13 kts | 249° |
| 2026-05-06 09:33 | 50.04097 | 8.55348 | 360 ft | 14 kts | 249° |
| 2026-05-06 09:34 | 50.04062 | 8.55201 | 359 ft | 15 kts | 249° |
| 2026-05-06 09:34 | 50.04024 | 8.55044 | 364 ft | 16 kts | 250° |
| 2026-05-06 09:34 | 50.03986 | 8.54887 | 360 ft | 17 kts | 249° |
| 2026-05-06 09:34 | 50.03945 | 8.54713 | 362 ft | 18 kts | 249° |
| 2026-05-06 09:35 | 50.03902 | 8.54531 | 363 ft | 18 kts | 249° |
| 2026-05-06 09:35 | 50.03850 | 8.54350 | 360 ft | 18 kts | 239° |
| 2026-05-06 09:35 | 50.03789 | 8.54175 | 362 ft | 18 kts | 248° |
| 2026-05-06 09:35 | 50.03744 | 8.53992 | 363 ft | 19 kts | 248° |
| 2026-05-06 09:36 | 50.03699 | 8.53804 | 360 ft | 18 kts | 250° |
| 2026-05-06 09:36 | 50.03655 | 8.53616 | 360 ft | 19 kts | 249° |
| 2026-05-06 09:36 | 50.03606 | 8.53426 | 364 ft | 19 kts | 250° |
| 2026-05-06 09:36 | 50.03561 | 8.53234 | 359 ft | 19 kts | 250° |
| 2026-05-06 09:37 | 50.03516 | 8.53044 | 366 ft | 19 kts | 250° |
| 2026-05-06 09:37 | 50.03470 | 8.52860 | 363 ft | 16 kts | 247° |
| 2026-05-06 09:37 | 50.03430 | 8.52710 | 366 ft | 14 kts | 249° |
| 2026-05-06 09:37 | 50.03390 | 8.52607 | 360 ft | 7 kts | 210° |
| 2026-05-06 09:38 | 50.03365 | 8.52595 | 363 ft | 2 kts | 188° |
| 2026-05-06 09:38 | 50.03359 | 8.52595 | 361 ft | 0 kts | 180° |
| 2026-05-06 09:39 | 50.03335 | 8.52594 | 357 ft | 9 kts | 181° |
| 2026-05-06 09:39 | 50.03238 | 8.52594 | 362 ft | 19 kts | 180° |
| 2026-05-06 09:39 | 50.02931 | 8.52593 | 361 ft | 75 kts | 179° |
| 2026-05-06 09:40 | 50.02203 | 8.52606 | 364 ft | 131 kts | 179° |
| 2026-05-06 09:40 | 50.01137 | 8.52616 | 366 ft | 173 kts | 178° |
| 2026-05-06 09:40 | 49.98477 | 8.52695 | 900 ft | 211 kts | 180° |
| 2026-05-06 09:41 | 49.96934 | 8.52802 | 948 ft | 236 kts | 178° |
| 2026-05-06 09:41 | 49.95287 | 8.52930 | 1524 ft | 239 kts | 179° |
| 2026-05-06 09:41 | 49.93618 | 8.53050 | 2131 ft | 241 kts | 180° |
| 2026-05-06 09:41 | 49.92022 | 8.53168 | 3326 ft | 219 kts | 180° |
| 2026-05-06 09:42 | 49.90471 | 8.53275 | 3987 ft | 226 kts | 180° |
| 2026-05-06 09:42 | 49.88890 | 8.53385 | 4727 ft | 228 kts | 180° |
| 2026-05-06 09:42 | 49.87293 | 8.53395 | 5366 ft | 229 kts | 194° |
| 2026-05-06 09:42 | 49.85737 | 8.52622 | 5697 ft | 247 kts | 202° |
| 2026-05-06 09:43 | 49.84059 | 8.51641 | 5988 ft | 261 kts | 202° |
| 2026-05-06 09:43 | 49.82354 | 8.50657 | 6608 ft | 262 kts | 201° |
| 2026-05-06 09:43 | 49.80852 | 8.49816 | 7087 ft | 264 kts | 201° |
| 2026-05-06 09:43 | 49.79139 | 8.48859 | 7616 ft | 266 kts | 202° |
| 2026-05-06 09:44 | 49.77526 | 8.47497 | 8149 ft | 265 kts | 223° |
| 2026-05-06 09:44 | 49.76401 | 8.45264 | 8644 ft | 267 kts | 245° |
| 2026-05-06 09:44 | 49.75965 | 8.42455 | 9467 ft | 271 kts | 267° |
| 2026-05-06 09:44 | 49.76224 | 8.39535 | 10229 ft | 281 kts | 280° |
| 2026-05-06 09:45 | 49.76716 | 8.36452 | 10412 ft | 309 kts | 282° |
| 2026-05-06 09:45 | 49.77286 | 8.33090 | 10595 ft | 335 kts | 282° |
| 2026-05-06 09:45 | 49.77863 | 8.29567 | 11413 ft | 338 kts | 281° |
| 2026-05-06 09:45 | 49.78427 | 8.26011 | 12171 ft | 344 kts | 281° |
| 2026-05-06 09:46 | 49.78995 | 8.22441 | 12941 ft | 348 kts | 281° |
| 2026-05-06 09:46 | 49.79581 | 8.18786 | 13682 ft | 353 kts | 281° |
| 2026-05-06 09:46 | 49.80177 | 8.15072 | 14336 ft | 357 kts | 281° |
| 2026-05-06 09:46 | 49.80762 | 8.11402 | 14965 ft | 361 kts | 281° |
| 2026-05-06 09:47 | 49.81107 | 8.07552 | 15606 ft | 361 kts | 266° |
| 2026-05-06 09:47 | 49.80879 | 8.03669 | 16221 ft | 364 kts | 259° |
| 2026-05-06 09:47 | 49.80459 | 7.99784 | 16827 ft | 368 kts | 258° |
| 2026-05-06 09:47 | 49.80115 | 7.95830 | 17428 ft | 373 kts | 263° |
| 2026-05-06 09:48 | 49.79939 | 7.91798 | 18023 ft | 378 kts | 264° |
| 2026-05-06 09:48 | 49.79768 | 7.87731 | 18568 ft | 380 kts | 263° |
| 2026-05-06 09:48 | 49.79517 | 7.83644 | 19135 ft | 382 kts | 262° |
| 2026-05-06 09:48 | 49.79247 | 7.79542 | 19724 ft | 384 kts | 262° |
| 2026-05-06 09:49 | 49.79006 | 7.75407 | 20236 ft | 387 kts | 263° |
| 2026-05-06 09:49 | 49.78777 | 7.71254 | 20812 ft | 388 kts | 263° |
| 2026-05-06 09:49 | 49.78534 | 7.67138 | 21321 ft | 390 kts | 262° |
| 2026-05-06 09:49 | 49.78277 | 7.62946 | 21819 ft | 392 kts | 262° |
| 2026-05-06 09:50 | 49.78022 | 7.58721 | 22308 ft | 395 kts | 262° |
| 2026-05-06 09:50 | 49.77768 | 7.54476 | 22793 ft | 396 kts | 262° |
| 2026-05-06 09:50 | 49.77511 | 7.50219 | 23241 ft | 399 kts | 262° |
| 2026-05-06 09:50 | 49.77248 | 7.45936 | 23629 ft | 401 kts | 262° |
| 2026-05-06 09:51 | 49.76982 | 7.41629 | 24023 ft | 402 kts | 262° |
| 2026-05-06 09:51 | 49.76715 | 7.37306 | 24404 ft | 404 kts | 262° |
| 2026-05-06 09:51 | 49.76446 | 7.32967 | 24763 ft | 406 kts | 262° |
| 2026-05-06 09:51 | 49.76172 | 7.28613 | 25119 ft | 407 kts | 262° |
| 2026-05-06 09:52 | 49.75900 | 7.24299 | 25470 ft | 409 kts | 261° |
| 2026-05-06 09:52 | 49.75621 | 7.19896 | 25816 ft | 410 kts | 261° |
| 2026-05-06 09:52 | 49.75340 | 7.15492 | 26160 ft | 412 kts | 261° |
| 2026-05-06 09:52 | 49.75056 | 7.11066 | 26500 ft | 414 kts | 261° |
| 2026-05-06 09:53 | 49.74769 | 7.06626 | 26853 ft | 415 kts | 261° |
| 2026-05-06 09:53 | 49.74484 | 7.02237 | 27179 ft | 417 kts | 261° |
| 2026-05-06 09:53 | 49.74192 | 6.97769 | 27503 ft | 419 kts | 261° |
| 2026-05-06 09:53 | 49.73896 | 6.93273 | 27855 ft | 421 kts | 261° |
| 2026-05-06 09:54 | 49.73598 | 6.88764 | 28179 ft | 422 kts | 261° |
| 2026-05-06 09:54 | 49.73297 | 6.84230 | 28551 ft | 424 kts | 261° |
| 2026-05-06 09:54 | 49.72992 | 6.79674 | 28901 ft | 426 kts | 261° |
| 2026-05-06 09:54 | 49.72684 | 6.75107 | 29255 ft | 427 kts | 261° |
| 2026-05-06 09:55 | 49.72374 | 6.70527 | 29584 ft | 429 kts | 261° |
| 2026-05-06 09:55 | 49.72060 | 6.65924 | 29899 ft | 431 kts | 260° |
| 2026-05-06 09:55 | 49.71747 | 6.61362 | 30160 ft | 434 kts | 261° |
| 2026-05-06 09:55 | 49.71427 | 6.56715 | 30395 ft | 436 kts | 261° |
| 2026-05-06 09:56 | 49.71102 | 6.52032 | 30648 ft | 439 kts | 261° |
| 2026-05-06 09:56 | 49.70773 | 6.47319 | 30888 ft | 442 kts | 261° |
| 2026-05-06 09:56 | 49.70441 | 6.42583 | 31139 ft | 445 kts | 261° |
| 2026-05-06 09:56 | 49.70105 | 6.37821 | 31368 ft | 448 kts | 261° |
| 2026-05-06 09:57 | 49.69763 | 6.33017 | 31588 ft | 450 kts | 261° |
| 2026-05-06 09:57 | 49.69419 | 6.28200 | 31838 ft | 453 kts | 261° |
| 2026-05-06 09:57 | 49.69070 | 6.23342 | 32061 ft | 456 kts | 261° |
| 2026-05-06 09:57 | 49.68720 | 6.18512 | 32289 ft | 459 kts | 261° |
| 2026-05-06 09:58 | 49.68363 | 6.13600 | 32522 ft | 462 kts | 261° |
| 2026-05-06 09:58 | 49.68001 | 6.08644 | 32737 ft | 465 kts | 261° |
| 2026-05-06 09:58 | 49.67635 | 6.03674 | 32967 ft | 468 kts | 261° |
| 2026-05-06 09:58 | 49.67264 | 5.98664 | 33197 ft | 470 kts | 261° |
| 2026-05-06 09:59 | 49.66889 | 5.93631 | 33404 ft | 474 kts | 261° |
| 2026-05-06 09:59 | 49.66508 | 5.88554 | 33615 ft | 477 kts | 261° |
| 2026-05-06 09:59 | 49.66123 | 5.83440 | 33790 ft | 481 kts | 261° |
| 2026-05-06 09:59 | 49.65731 | 5.78280 | 33789 ft | 485 kts | 261° |
| 2026-05-06 10:00 | 49.64942 | 5.67960 | 33786 ft | 483 kts | 261° |
| 2026-05-06 10:00 | 49.64148 | 5.57725 | 33916 ft | 484 kts | 261° |
| 2026-05-06 10:01 | 49.63745 | 5.52565 | 34172 ft | 485 kts | 261° |
| 2026-05-06 10:01 | 49.63339 | 5.47387 | 34477 ft | 486 kts | 261° |
| 2026-05-06 10:01 | 49.62931 | 5.42220 | 34800 ft | 486 kts | 261° |
| 2026-05-06 10:01 | 49.62423 | 5.37036 | 34804 ft | 488 kts | 253° |
| 2026-05-06 10:02 | 49.60398 | 5.27134 | 34806 ft | 483 kts | 250° |
| 2026-05-06 10:02 | 49.58427 | 5.17234 | 34812 ft | 483 kts | 253° |
| 2026-05-06 10:03 | 49.56661 | 5.07293 | 34815 ft | 483 kts | 253° |
| 2026-05-06 10:03 | 49.54893 | 4.97358 | 34817 ft | 483 kts | 253° |
| 2026-05-06 10:04 | 49.53103 | 4.87350 | 34821 ft | 484 kts | 253° |
| 2026-05-06 10:04 | 49.51302 | 4.77352 | 34829 ft | 484 kts | 253° |
| 2026-05-06 10:05 | 49.49493 | 4.67350 | 34821 ft | 485 kts | 253° |
| 2026-05-06 10:05 | 49.47675 | 4.57372 | 34827 ft | 484 kts | 253° |
| 2026-05-06 10:06 | 49.45868 | 4.47480 | 34834 ft | 483 kts | 253° |
| 2026-05-06 10:06 | 49.44349 | 4.39226 | 34833 ft | 482 kts | 253° |
| 2026-05-06 10:07 | 49.42514 | 4.29290 | 34845 ft | 483 kts | 252° |
| 2026-05-06 10:07 | 49.40371 | 4.17763 | 34851 ft | 483 kts | 252° |
| 2026-05-06 10:08 | 49.38832 | 4.09521 | 34854 ft | 483 kts | 252° |
| 2026-05-06 10:08 | 49.36966 | 3.99590 | 34850 ft | 483 kts | 252° |
| 2026-05-06 10:09 | 49.35439 | 3.89540 | 34857 ft | 484 kts | 256° |
| 2026-05-06 10:09 | 49.33989 | 3.79443 | 34864 ft | 484 kts | 256° |
| 2026-05-06 10:10 | 49.32545 | 3.69403 | 34870 ft | 484 kts | 256° |
| 2026-05-06 10:10 | 49.31083 | 3.59321 | 34872 ft | 484 kts | 256° |
| 2026-05-06 10:11 | 49.29612 | 3.49242 | 34869 ft | 484 kts | 256° |
| 2026-05-06 10:11 | 49.28145 | 3.39256 | 34875 ft | 483 kts | 256° |
| 2026-05-06 10:12 | 49.26657 | 3.29196 | 34877 ft | 483 kts | 256° |
| 2026-05-06 10:12 | 49.25162 | 3.19144 | 34874 ft | 484 kts | 256° |
| 2026-05-06 10:13 | 49.23665 | 3.09158 | 34875 ft | 484 kts | 256° |
| 2026-05-06 10:13 | 49.22149 | 2.99089 | 34881 ft | 484 kts | 256° |
| 2026-05-06 10:14 | 49.20703 | 2.89557 | 34888 ft | 484 kts | 256° |
| 2026-05-06 10:14 | 49.19174 | 2.79543 | 34899 ft | 485 kts | 255° |
| 2026-05-06 10:15 | 49.17633 | 2.69498 | 34903 ft | 485 kts | 255° |
| 2026-05-06 10:15 | 49.16075 | 2.59420 | 34912 ft | 487 kts | 255° |
| 2026-05-06 10:16 | 49.14521 | 2.49424 | 34911 ft | 487 kts | 255° |
| 2026-05-06 10:16 | 49.12962 | 2.39327 | 34915 ft | 488 kts | 259° |
| 2026-05-06 10:17 | 49.11993 | 2.29047 | 34914 ft | 489 kts | 261° |
| 2026-05-06 10:17 | 49.11045 | 2.18767 | 34921 ft | 489 kts | 260° |
| 2026-05-06 10:18 | 49.10069 | 2.08481 | 34919 ft | 490 kts | 261° |
| 2026-05-06 10:18 | 49.09232 | 1.98232 | 34917 ft | 491 kts | 262° |
| 2026-05-06 10:19 | 49.08399 | 1.87879 | 34918 ft | 491 kts | 262° |
| 2026-05-06 10:19 | 49.07623 | 1.77531 | 34920 ft | 491 kts | 262° |
| 2026-05-06 10:20 | 49.06803 | 1.67181 | 34920 ft | 491 kts | 262° |
| 2026-05-06 10:20 | 49.05991 | 1.56855 | 34937 ft | 491 kts | 262° |
| 2026-05-06 10:21 | 49.05163 | 1.46521 | 34941 ft | 490 kts | 262° |
| 2026-05-06 10:21 | 49.04333 | 1.36273 | 34941 ft | 490 kts | 262° |
| 2026-05-06 10:22 | 49.03490 | 1.25959 | 34940 ft | 491 kts | 262° |
| 2026-05-06 10:22 | 49.03358 | 1.15567 | 34946 ft | 492 kts | 271° |
| 2026-05-06 10:23 | 49.03709 | 1.05140 | 34948 ft | 491 kts | 271° |
| 2026-05-06 10:23 | 49.04004 | 0.94720 | 34951 ft | 492 kts | 271° |
| 2026-05-06 10:24 | 49.04314 | 0.84354 | 34947 ft | 492 kts | 271° |
| 2026-05-06 10:24 | 49.04602 | 0.73926 | 34947 ft | 492 kts | 271° |
| 2026-05-06 10:25 | 49.04889 | 0.63498 | 34948 ft | 492 kts | 271° |
| 2026-05-06 10:25 | 49.05160 | 0.53125 | 34948 ft | 492 kts | 271° |
| 2026-05-06 10:26 | 49.05427 | 0.42687 | 34953 ft | 492 kts | 271° |
| 2026-05-06 10:26 | 49.05682 | 0.32258 | 34960 ft | 492 kts | 271° |
| 2026-05-06 10:27 | 49.05928 | 0.21810 | 34947 ft | 491 kts | 270° |
| 2026-05-06 10:27 | 49.06166 | 0.11393 | 34950 ft | 490 kts | 270° |
| 2026-05-06 10:28 | 49.06391 | 0.01064 | 34947 ft | 490 kts | 270° |
| 2026-05-06 10:28 | 49.06607 | -0.09313 | 34954 ft | 490 kts | 270° |
| 2026-05-06 10:29 | 49.06816 | -0.19712 | 34956 ft | 490 kts | 270° |
| 2026-05-06 10:29 | 49.07014 | -0.30057 | 34959 ft | 491 kts | 270° |
| 2026-05-06 10:30 | 49.07206 | -0.40497 | 34970 ft | 493 kts | 270° |
| 2026-05-06 10:30 | 49.07389 | -0.50964 | 34962 ft | 493 kts | 270° |
| 2026-05-06 10:31 | 49.07562 | -0.61376 | 34962 ft | 493 kts | 270° |
| 2026-05-06 10:31 | 49.07726 | -0.71834 | 34973 ft | 493 kts | 270° |
| 2026-05-06 10:32 | 49.07881 | -0.82309 | 34977 ft | 493 kts | 269° |
| 2026-05-06 10:32 | 49.08026 | -0.92786 | 34973 ft | 492 kts | 269° |
| 2026-05-06 10:33 | 49.08160 | -1.03170 | 34973 ft | 491 kts | 269° |
| 2026-05-06 10:33 | 49.08285 | -1.13604 | 34970 ft | 492 kts | 269° |
| 2026-05-06 10:34 | 49.09309 | -1.23948 | 34983 ft | 495 kts | 282° |
| 2026-05-06 10:34 | 49.10981 | -1.34081 | 34996 ft | 495 kts | 282° |
| 2026-05-06 10:35 | 49.12609 | -1.44301 | 34983 ft | 494 kts | 282° |
| 2026-05-06 10:35 | 49.14235 | -1.54421 | 34980 ft | 493 kts | 282° |
| 2026-05-06 10:36 | 49.15851 | -1.64613 | 34979 ft | 493 kts | 282° |
| 2026-05-06 10:36 | 49.17465 | -1.74825 | 34991 ft | 493 kts | 282° |
| 2026-05-06 10:37 | 49.19060 | -1.84989 | 34996 ft | 494 kts | 282° |
| 2026-05-06 10:37 | 49.20658 | -1.95234 | 34997 ft | 494 kts | 282° |
| 2026-05-06 10:38 | 49.22262 | -2.05469 | 34995 ft | 494 kts | 285° |
| 2026-05-06 10:38 | 49.24006 | -2.15569 | 35001 ft | 494 kts | 283° |
| 2026-05-06 10:39 | 49.25737 | -2.25761 | 35001 ft | 493 kts | 284° |
| 2026-05-06 10:39 | 49.27480 | -2.35924 | 34999 ft | 492 kts | 283° |
| 2026-05-06 10:40 | 49.29177 | -2.46013 | 34995 ft | 491 kts | 284° |
| 2026-05-06 10:40 | 49.30890 | -2.56157 | 34996 ft | 490 kts | 284° |
| 2026-05-06 10:41 | 49.32582 | -2.66300 | 34998 ft | 490 kts | 284° |
| 2026-05-06 10:41 | 49.34269 | -2.76429 | 34989 ft | 489 kts | 284° |
| 2026-05-06 10:42 | 49.35928 | -2.86478 | 34988 ft | 489 kts | 284° |
| 2026-05-06 10:42 | 49.37593 | -2.96609 | 34986 ft | 487 kts | 284° |
| 2026-05-06 10:43 | 49.39233 | -3.06655 | 34981 ft | 488 kts | 284° |
| 2026-05-06 10:44 | 49.41696 | -3.21848 | 34977 ft | 489 kts | 284° |
| 2026-05-06 10:44 | 49.43329 | -3.32004 | 34977 ft | 489 kts | 284° |
| 2026-05-06 10:45 | 49.44952 | -3.42156 | 34975 ft | 489 kts | 284° |
| 2026-05-06 10:45 | 49.46561 | -3.52285 | 34982 ft | 490 kts | 284° |
| 2026-05-06 10:46 | 49.48175 | -3.62500 | 34979 ft | 491 kts | 283° |
| 2026-05-06 10:46 | 49.49769 | -3.72663 | 34985 ft | 491 kts | 283° |
| 2026-05-06 10:47 | 49.51366 | -3.82900 | 34993 ft | 492 kts | 283° |
| 2026-05-06 10:47 | 49.52953 | -3.93144 | 34991 ft | 491 kts | 283° |
| 2026-05-06 10:48 | 49.54528 | -4.03370 | 35000 ft | 491 kts | 283° |
| 2026-05-06 10:48 | 49.56092 | -4.13589 | 35003 ft | 493 kts | 283° |
| 2026-05-06 10:49 | 49.57655 | -4.23872 | 35003 ft | 493 kts | 283° |
| 2026-05-06 10:49 | 49.59292 | -4.34148 | 35018 ft | 493 kts | 289° |
| 2026-05-06 10:50 | 49.61588 | -4.44101 | 35006 ft | 495 kts | 290° |
| 2026-05-06 10:50 | 49.63887 | -4.54107 | 35016 ft | 495 kts | 289° |
| 2026-05-06 10:51 | 49.66168 | -4.64140 | 35013 ft | 495 kts | 290° |
| 2026-05-06 10:51 | 49.68441 | -4.74119 | 35014 ft | 494 kts | 289° |
| 2026-05-06 10:52 | 49.70708 | -4.84175 | 35013 ft | 494 kts | 289° |
| 2026-05-06 10:52 | 49.72973 | -4.94232 | 35011 ft | 495 kts | 289° |
| 2026-05-06 10:53 | 49.75215 | -5.04257 | 35005 ft | 496 kts | 289° |
| 2026-05-06 10:53 | 49.77466 | -5.14357 | 35005 ft | 496 kts | 289° |
| 2026-05-06 10:54 | 49.79705 | -5.24464 | 34998 ft | 496 kts | 289° |
| 2026-05-06 10:54 | 49.81926 | -5.34528 | 34997 ft | 495 kts | 289° |
| 2026-05-06 10:55 | 49.84134 | -5.44588 | 34993 ft | 495 kts | 289° |
| 2026-05-06 10:55 | 49.85972 | -5.52998 | 35006 ft | 494 kts | 289° |
| 2026-05-06 10:56 | 49.88171 | -5.63103 | 35007 ft | 494 kts | 289° |
| 2026-05-06 10:56 | 49.90345 | -5.73146 | 35009 ft | 493 kts | 289° |
| 2026-05-06 10:57 | 49.92525 | -5.83262 | 35016 ft | 493 kts | 289° |
| 2026-05-06 10:57 | 49.94693 | -5.93377 | 35018 ft | 493 kts | 289° |
| 2026-05-06 10:58 | 49.96838 | -6.03427 | 35037 ft | 493 kts | 290° |
| 2026-05-06 10:58 | 49.98990 | -6.13572 | 35039 ft | 494 kts | 290° |
| 2026-05-06 10:59 | 50.01140 | -6.23739 | 35044 ft | 494 kts | 290° |
| 2026-05-06 10:59 | 50.03263 | -6.33848 | 35041 ft | 494 kts | 290° |
| 2026-05-06 11:00 | 50.05397 | -6.44049 | 35038 ft | 494 kts | 290° |
| 2026-05-06 11:00 | 50.07506 | -6.54191 | 35036 ft | 495 kts | 290° |
| 2026-05-06 11:01 | 50.09620 | -6.64408 | 35034 ft | 495 kts | 290° |
| 2026-05-06 11:01 | 50.11728 | -6.74637 | 35027 ft | 495 kts | 290° |
| 2026-05-06 11:02 | 50.13811 | -6.84804 | 35037 ft | 495 kts | 290° |
| 2026-05-06 11:02 | 50.15900 | -6.95057 | 35036 ft | 495 kts | 290° |
| 2026-05-06 11:03 | 50.17976 | -7.05299 | 35039 ft | 495 kts | 289° |
| 2026-05-06 11:03 | 50.20043 | -7.15547 | 35039 ft | 494 kts | 289° |
| 2026-05-06 11:04 | 50.22089 | -7.25741 | 35036 ft | 493 kts | 289° |
| 2026-05-06 11:04 | 50.24134 | -7.35992 | 35030 ft | 492 kts | 289° |
| 2026-05-06 11:05 | 50.26151 | -7.46145 | 35033 ft | 492 kts | 289° |
| 2026-05-06 11:05 | 50.28169 | -7.56366 | 35030 ft | 491 kts | 289° |
| 2026-05-06 11:06 | 50.30180 | -7.66597 | 35032 ft | 491 kts | 289° |
| 2026-05-06 11:06 | 50.32173 | -7.76799 | 35025 ft | 490 kts | 289° |
| 2026-05-06 11:07 | 50.34155 | -7.86993 | 35030 ft | 488 kts | 289° |
| 2026-05-06 11:07 | 50.36110 | -7.97104 | 35029 ft | 488 kts | 289° |
| 2026-05-06 11:08 | 50.37596 | -8.07509 | 35040 ft | 489 kts | 282° |
| 2026-05-06 11:08 | 50.38839 | -8.17993 | 35042 ft | 489 kts | 282° |
| 2026-05-06 11:09 | 50.40099 | -8.28386 | 35039 ft | 488 kts | 282° |
| 2026-05-06 11:09 | 50.41333 | -8.38839 | 35038 ft | 486 kts | 282° |
| 2026-05-06 11:10 | 50.42570 | -8.49285 | 35041 ft | 486 kts | 282° |
| 2026-05-06 11:10 | 50.43780 | -8.59656 | 35039 ft | 485 kts | 282° |
| 2026-05-06 11:11 | 50.44990 | -8.70068 | 35040 ft | 484 kts | 282° |
| 2026-05-06 11:11 | 50.46188 | -8.80486 | 35039 ft | 483 kts | 281° |
| 2026-05-06 11:12 | 50.47367 | -8.90813 | 35041 ft | 483 kts | 281° |
| 2026-05-06 11:12 | 50.48541 | -9.01187 | 35039 ft | 482 kts | 281° |
| 2026-05-06 11:13 | 50.49707 | -9.11569 | 35045 ft | 482 kts | 281° |
| 2026-05-06 11:13 | 50.50863 | -9.21962 | 35043 ft | 481 kts | 281° |
| 2026-05-06 11:14 | 50.52001 | -9.32268 | 35045 ft | 481 kts | 281° |
| 2026-05-06 11:14 | 50.53137 | -9.42650 | 35046 ft | 481 kts | 281° |
| 2026-05-06 11:15 | 50.54254 | -9.52951 | 35054 ft | 480 kts | 281° |
| 2026-05-06 11:15 | 50.55374 | -9.63360 | 35462 ft | 481 kts | 280° |
| 2026-05-06 11:15 | 50.55928 | -9.68552 | 35761 ft | 481 kts | 280° |
| 2026-05-06 11:16 | 50.56480 | -9.73743 | 36048 ft | 481 kts | 280° |
| 2026-05-06 11:16 | 50.57577 | -9.84120 | 36041 ft | 483 kts | 280° |
| 2026-05-06 11:17 | 50.58663 | -9.94491 | 36043 ft | 480 kts | 280° |
| 2026-05-06 11:17 | 50.59740 | -10.04863 | 36046 ft | 479 kts | 280° |
| 2026-05-06 11:18 | 50.60806 | -10.15231 | 36047 ft | 479 kts | 280° |
| 2026-05-06 11:18 | 50.61863 | -10.25592 | 36049 ft | 479 kts | 280° |
| 2026-05-06 11:19 | 50.62909 | -10.35957 | 36057 ft | 478 kts | 280° |
| 2026-05-06 11:19 | 50.63940 | -10.46255 | 36052 ft | 478 kts | 280° |
| 2026-05-06 11:20 | 50.64965 | -10.56607 | 36059 ft | 478 kts | 279° |
| 2026-05-06 11:20 | 50.65986 | -10.66997 | 36058 ft | 478 kts | 279° |
| 2026-05-06 11:21 | 50.66996 | -10.77382 | 36060 ft | 479 kts | 279° |
| 2026-05-06 11:21 | 50.67991 | -10.87704 | 36059 ft | 478 kts | 279° |
| 2026-05-06 11:22 | 50.68982 | -10.98095 | 36063 ft | 478 kts | 279° |
| 2026-05-06 11:22 | 50.69963 | -11.08478 | 36064 ft | 478 kts | 279° |
| 2026-05-06 11:23 | 50.70929 | -11.18801 | 36067 ft | 478 kts | 279° |
| 2026-05-06 11:23 | 50.71891 | -11.29184 | 36067 ft | 478 kts | 279° |
| 2026-05-06 11:24 | 50.72845 | -11.39588 | 36073 ft | 477 kts | 279° |
| 2026-05-06 11:24 | 50.73782 | -11.49901 | 36071 ft | 477 kts | 279° |
| 2026-05-06 11:25 | 50.74717 | -11.60306 | 36072 ft | 477 kts | 279° |
| 2026-05-06 11:25 | 50.75635 | -11.70629 | 36079 ft | 477 kts | 279° |
| 2026-05-06 11:26 | 50.76550 | -11.81021 | 36083 ft | 477 kts | 279° |
| 2026-05-06 11:26 | 50.77456 | -11.91420 | 36080 ft | 477 kts | 278° |
| 2026-05-06 11:27 | 50.78349 | -12.01776 | 36078 ft | 478 kts | 278° |
| 2026-05-06 11:27 | 50.79237 | -12.12193 | 36078 ft | 478 kts | 278° |
| 2026-05-06 11:28 | 50.80117 | -12.22634 | 36083 ft | 479 kts | 278° |
| 2026-05-06 11:28 | 50.80988 | -12.33078 | 36082 ft | 478 kts | 278° |
| 2026-05-06 11:29 | 50.81845 | -12.43461 | 36084 ft | 478 kts | 278° |
| 2026-05-06 11:29 | 50.82696 | -12.53896 | 36082 ft | 478 kts | 278° |
| 2026-05-06 11:30 | 50.83540 | -12.64360 | 36089 ft | 479 kts | 278° |
| 2026-05-06 11:30 | 50.84370 | -12.74770 | 36084 ft | 479 kts | 278° |
| 2026-05-06 11:31 | 50.85197 | -12.85259 | 36084 ft | 480 kts | 278° |
| 2026-05-06 11:31 | 50.86015 | -12.95765 | 36083 ft | 480 kts | 278° |
| 2026-05-06 11:32 | 50.86819 | -13.06201 | 36087 ft | 480 kts | 278° |
| 2026-05-06 11:32 | 50.87619 | -13.16724 | 36082 ft | 480 kts | 278° |
| 2026-05-06 11:33 | 50.88407 | -13.27209 | 36087 ft | 481 kts | 278° |
| 2026-05-06 11:33 | 50.89189 | -13.37756 | 36088 ft | 481 kts | 278° |
| 2026-05-06 11:34 | 50.89961 | -13.48294 | 36088 ft | 481 kts | 278° |
| 2026-05-06 11:34 | 50.90720 | -13.58785 | 36088 ft | 482 kts | 278° |
| 2026-05-06 11:35 | 50.91475 | -13.69352 | 36090 ft | 482 kts | 278° |
| 2026-05-06 11:35 | 50.92221 | -13.79929 | 36085 ft | 482 kts | 278° |
| 2026-05-06 11:36 | 50.92952 | -13.90433 | 36089 ft | 482 kts | 278° |
| 2026-05-06 11:36 | 50.93679 | -14.01027 | 36088 ft | 483 kts | 278° |
| 2026-05-06 11:37 | 50.94397 | -14.11630 | 36089 ft | 483 kts | 278° |
| 2026-05-06 11:37 | 50.95102 | -14.22176 | 36087 ft | 484 kts | 278° |
| 2026-05-06 11:38 | 50.95804 | -14.32837 | 36087 ft | 490 kts | 278° |
| 2026-05-06 11:38 | 50.96507 | -14.43649 | 36090 ft | 493 kts | 278° |
| 2026-05-06 11:39 | 50.97196 | -14.54432 | 36090 ft | 494 kts | 278° |
| 2026-05-06 11:39 | 50.97881 | -14.65281 | 36093 ft | 494 kts | 278° |
| 2026-05-06 11:40 | 50.98554 | -14.76134 | 36088 ft | 493 kts | 278° |
| 2026-05-06 11:40 | 50.99216 | -14.86945 | 36082 ft | 492 kts | 278° |
| 2026-05-06 11:41 | 50.99864 | -14.97705 | 36084 ft | 493 kts | 278° |
| 2026-05-06 11:41 | 51.01019 | -15.08398 | 36092 ft | 491 kts | 284° |
| 2026-05-06 11:42 | 51.02327 | -15.19062 | 36089 ft | 491 kts | 283° |
| 2026-05-06 11:42 | 51.03601 | -15.29727 | 36084 ft | 490 kts | 284° |
| 2026-05-06 11:43 | 51.04875 | -15.40353 | 36083 ft | 488 kts | 283° |
| 2026-05-06 11:43 | 51.06119 | -15.50890 | 36077 ft | 488 kts | 283° |
| 2026-05-06 11:44 | 51.07781 | -15.65046 | 36073 ft | 488 kts | 283° |
| 2026-05-06 11:44 | 51.09015 | -15.75681 | 36075 ft | 487 kts | 283° |
| 2026-05-06 11:45 | 51.10232 | -15.86239 | 36079 ft | 487 kts | 283° |
| 2026-05-06 11:45 | 51.11447 | -15.96882 | 36077 ft | 488 kts | 283° |
| 2026-05-06 11:46 | 51.12642 | -16.07439 | 36080 ft | 486 kts | 283° |
| 2026-05-06 11:46 | 51.13835 | -16.18061 | 36078 ft | 486 kts | 283° |
| 2026-05-06 11:47 | 51.15005 | -16.28590 | 36076 ft | 475 kts | 283° |
| 2026-05-06 11:47 | 51.16143 | -16.38870 | 36072 ft | 461 kts | 283° |
| 2026-05-06 11:48 | 51.16679 | -16.43825 | 36071 ft | 447 kts | 283° |
| 2026-05-06 11:48 | 51.17198 | -16.48561 | 36069 ft | 433 kts | 283° |
| 2026-05-06 11:48 | 51.17710 | -16.53238 | 36067 ft | 420 kts | 283° |
| 2026-05-06 11:48 | 51.18201 | -16.57762 | 36060 ft | 407 kts | 283° |
| 2026-05-06 11:49 | 51.18673 | -16.62149 | 36055 ft | 393 kts | 283° |
| 2026-05-06 11:49 | 51.19122 | -16.66329 | 36055 ft | 380 kts | 283° |
| 2026-05-06 11:49 | 51.19562 | -16.70426 | 36051 ft | 367 kts | 283° |
| 2026-05-06 11:49 | 51.19983 | -16.74364 | 36044 ft | 353 kts | 283° |
| 2026-05-06 11:50 | 51.20385 | -16.78142 | 36043 ft | 338 kts | 284° |
| 2026-05-06 11:50 | 51.20770 | -16.81772 | 36034 ft | 323 kts | 284° |
| 2026-05-06 11:50 | 51.21129 | -16.85170 | 36009 ft | 306 kts | 284° |
| 2026-05-06 11:50 | 51.21476 | -16.88454 | 35785 ft | 295 kts | 284° |
| 2026-05-06 11:51 | 51.21823 | -16.91689 | 35127 ft | 299 kts | 284° |
| 2026-05-06 11:51 | 51.22210 | -16.95088 | 33725 ft | 328 kts | 285° |
| 2026-05-06 11:51 | 51.22629 | -16.98876 | 31953 ft | 371 kts | 282° |
| 2026-05-06 11:51 | 51.22931 | -17.02975 | 31790 ft | 352 kts | 283° |
| 2026-05-06 11:52 | 51.23299 | -17.06245 | 33838 ft | 253 kts | 296° |
| 2026-05-06 11:52 | 51.24117 | -17.08393 | 31704 ft | 193 kts | 345° |
| 2026-05-06 11:52 | 51.23895 | -17.07937 | 21622 ft | 409 kts | 153° |
| 2026-05-06 11:52 | 51.21738 | -17.04242 | 21642 ft | 449 kts | 77° |
| 2026-05-06 11:53 | 51.22700 | -17.03668 | 13090 ft | 507 kts | 274° |
| 2026-05-06 11:53 | 51.21907 | -17.06583 | 18871 ft | 182 kts | 122° |
| 2026-05-06 11:53 | 51.21484 | -17.04292 | 20150 ft | 204 kts | 68° |
| 2026-05-06 11:53 | 51.22624 | -17.04227 | 13399 ft | 388 kts | 317° |
| 2026-05-06 11:54 | 51.23869 | -17.06867 | 16857 ft | 113 kts | 256° |
| 2026-05-06 11:54 | 51.23465 | -17.07866 | 19057 ft | 112 kts | 223° |
| 2026-05-06 11:54 | 51.22583 | -17.08576 | 14398 ft | 240 kts | 200° |
| 2026-05-06 11:54 | 51.20348 | -17.09596 | 13321 ft | 266 kts | 193° |
| 2026-05-06 11:55 | 51.19490 | -17.09754 | 17308 ft | 60 kts | 178° |
| 2026-05-06 11:55 | 51.19141 | -17.09708 | 15412 ft | 53 kts | 179° |
| 2026-05-06 11:55 | 51.17918 | -17.09497 | 10114 ft | 350 kts | 174° |
| 2026-05-06 11:55 | 51.16066 | -17.08881 | 13039 ft | 130 kts | 134° |
| 2026-05-06 11:56 | 51.15678 | -17.07997 | 14497 ft | 94 kts | 96° |
| 2026-05-06 11:56 | 51.16063 | -17.06755 | 9910 ft | 265 kts | 20° |